Latest Coastal Weather Observations for Minlaton Airport

IDS60701

Issued at 8:55 pm CDT Thursday 23 October 2014 (issued every 10 minutes, with the page automatically refreshed every 10 minutes)

About coastal observations | Map of coastal stations | Coastal observations for SA | Marine services | Other Formats
Station Details ID: 022031 Name: MINLATON AERO Lat: -34.75 Lon: 137.53 Height: 32.0 m
Data from the previous 72 hours. | See also: Recent months at Minlaton Airport
Date/Time
CDT
Temp

°C
Wind Pressure Rain
since 9am
mm
Weather Cloud Vis
km
Sea
Height
m
Swell
Dir
 
Speed
knots
Gust
knots
hPa Trend Height
m
Period
s
Dir
23/08:30pm 13.8 S 6 7 1015.7 - 0.0 - - - - - - -
23/08:00pm 15.8 S 8 10 1015.4 - 0.0 - - - - - - -
23/07:30pm 17.0 S 9 11 1015.2 - 0.0 - - - - - - -
23/07:00pm 18.7 S 10 12 1015.2 - 0.0 - - - - - - -
23/06:30pm 20.1 SSW 11 13 1015.0 - 0.0 - - - - - - -
23/06:00pm 21.4 SSW 11 14 1014.8 - 0.0 - - - - - - -
23/05:30pm 21.5 S 10 15 1014.6 - 0.0 - - - - - - -
23/05:00pm 21.9 S 12 16 1014.5 - 0.0 - - - - - - -
23/04:30pm 23.0 SSW 12 16 1014.6 - 0.0 - - - - - - -
23/04:00pm 23.7 S 14 18 1014.7 - 0.0 - - - - - - -
23/03:30pm 24.5 S 15 20 1014.6 - 0.0 - - - - - - -
23/03:00pm 25.8 SSE 6 17 1014.6 - 0.0 - - - - - - -
23/02:30pm 24.4 SE 6 13 1015.0 - 0.0 - - - - - - -
23/02:00pm 24.9 SE 6 11 1015.4 - 0.0 - - - - - - -
23/01:30pm 23.8 S 8 12 1015.7 - 0.0 - - - - - - -
23/01:00pm 22.9 SE 6 13 1016.1 - 0.0 - - - - - - -
23/12:30pm 22.7 SE 8 12 1016.6 - 0.0 - - - - - - -
23/12:00pm 21.4 ESE 6 10 1017.0 - 0.0 - - - - - - -
23/11:30am 20.4 SE 8 13 1017.5 - 0.0 - - - - - - -
23/11:00am 19.3 SE 9 12 1017.8 - 0.0 - - - - - - -
23/10:30am 18.0 ESE 8 12 1018.3 - 0.0 - - - - - - -
23/10:00am 18.0 SE 10 15 1018.2 - 0.0 - - - - - - -
23/09:30am 17.0 SSE 12 16 1018.2 - 0.0 - - - - - - -
23/09:00am 16.6 SSE 9 14 1018.3 - 0.0 - - - - - - -
23/08:30am 15.9 SE 10 14 1018.3 - 0.0 - - - - - - -
23/08:00am 15.2 SE 12 16 1018.4 - 0.0 - - - - - - -
23/07:30am 15.0 SSE 13 17 1018.4 - 0.0 - - - - - - -
23/07:00am 14.8 SSE 11 15 1018.6 - 0.0 - - - - - - -
23/06:30am 14.6 SSE 13 19 1018.4 - 0.0 - - - - - - -
23/06:00am 14.4 SSE 12 18 1018.0 - 0.0 - - - - - - -
23/05:30am 14.6 SSE 13 18 1018.0 - 0.0 - - - - - - -
23/05:00am 14.5 SSE 13 18 1018.4 - 0.0 - - - - - - -
23/04:30am 14.2 SSE 13 17 1018.0 - 0.0 - - - - - - -
23/04:00am 14.2 SSE 13 17 1018.2 - 0.0 - - - - - - -
23/03:30am 14.0 SSE 17 22 1018.4 - 0.0 - - - - - - -
23/03:00am 14.2 SSE 15 20 1018.5 - 0.0 - - - - - - -
23/02:30am 14.3 SSE 14 18 1018.8 - 0.0 - - - - - - -
23/02:00am 14.4 S 14 19 1019.1 - 0.0 - - - - - - -
23/01:30am 14.4 SSE 15 19 1019.5 - 0.0 - - - - - - -
23/01:00am 14.5 SSE 13 19 1020.1 - 0.0 - - - - - - -
23/12:30am 14.4 S 14 20 1020.2 - 0.0 - - - - - - -
23/12:00am 14.3 SSE 14 21 1020.0 - 0.0 - - - - - - -
 
Date/Time
CDT
Temp

°C
Wind Pressure Rain
since 9am
mm
Weather Cloud Vis
km
Sea
Height
m
Swell
Dir
 
Speed
knots
Gust
knots
hPa Trend Height
m
Period
s
Dir
22/11:30pm 14.1 SSE 16 22 1020.1 - 0.0 - - - - - - -
22/11:00pm 14.2 SSE 17 23 1020.2 - 0.0 - - - - - - -
22/10:30pm 14.4 S 17 26 1020.5 - 0.0 - - - - - - -
22/10:00pm 14.7 S 16 19 1020.3 - 0.0 - - - - - - -
22/09:30pm 14.7 S 17 24 1020.3 - 0.0 - - - - - - -
22/09:00pm 14.9 S 17 23 1020.3 - 0.0 - - - - - - -
22/08:30pm 15.2 S 15 20 1020.0 - 0.0 - - - - - - -
22/08:00pm 15.0 S 13 18 1019.6 - 0.0 - - - - - - -
22/07:30pm 15.9 S 16 21 1019.5 - 0.0 - - - - - - -
22/07:00pm 17.3 S 15 21 1019.1 - 0.0 - - - - - - -
22/06:30pm 18.4 S 18 23 1018.6 - 0.0 - - - - - - -
22/06:00pm 19.6 S 16 22 1018.4 - 0.0 - - - - - - -
22/05:30pm 21.1 S 17 22 1018.3 - 0.0 - - - - - - -
22/05:00pm 22.6 S 17 22 1018.2 - 0.0 - - - - - - -
22/04:30pm 23.4 S 18 24 1017.9 - 0.0 - - - - - - -
22/04:00pm 24.3 S 17 23 1017.9 - 0.0 - - - - - - -
22/03:30pm 24.0 S 17 25 1018.1 - 0.0 - - - - - - -
22/03:10pm 24.7 S 16 29 1018.0 - 0.0 - - - - - - -
22/03:00pm 24.1 S 16 21 1018.0 - 0.0 - - - - - - -
22/02:30pm 24.2 S 19 23 1018.1 - 0.0 - - - - - - -
22/02:00pm 24.8 S 17 25 1018.3 - 0.0 - - - - - - -
22/01:30pm 23.9 S 19 25 1018.4 - 0.0 - - - - - - -
22/01:00pm 24.8 S 18 25 1018.3 - 0.0 - - - - - - -
22/12:30pm 25.5 S 17 23 1018.4 - 0.0 - - - - - - -
22/12:00pm 25.3 S 17 22 1018.5 - 0.0 - - - - - - -
22/11:30am 24.0 S 17 22 1018.6 - 0.0 - - - - - - -
22/11:00am 23.9 S 15 21 1018.4 - 0.0 - - - - - - -
22/10:30am 23.1 S 17 23 1018.4 - 0.0 - - - - - - -
22/10:00am 23.3 S 17 23 1018.1 - 0.0 - - - - - - -
22/09:30am 22.5 S 15 20 1017.8 - 0.0 - - - - - - -
22/09:00am 21.0 S 17 23 1017.2 - 0.0 - - - - - - -
22/08:30am 19.9 S 14 20 1017.1 - 0.0 - - - - - - -
22/08:00am 18.7 S 14 19 1016.7 - 0.0 - - - - - - -
22/07:30am 17.1 S 11 15 1016.5 - 0.0 - - - - - - -
22/07:00am 15.4 S 10 12 1016.6 - 0.0 - - - - - - -
22/06:30am 14.9 S 8 9 1016.3 - 0.0 - - - - - - -
22/06:00am 15.8 S 9 11 1015.7 - 0.0 - - - - - - -
22/05:30am 17.0 S 11 14 1015.7 - 0.0 - - - - - - -
22/05:00am 15.4 S 10 11 1015.4 - 0.0 - - - - - - -
22/04:30am 15.9 SSW 6 7 1015.2 - 0.0 - - - - - - -
22/04:00am 17.8 SSE 10 11 1014.9 - 0.0 - - - - - - -
22/03:30am 19.1 S 7 9 1015.0 - 0.0 - - - - - - -
22/03:00am 19.5 E 11 13 1015.1 - 0.0 - - - - - - -
22/02:30am 20.6 ESE 12 15 1014.6 - 0.0 - - - - - - -
22/02:00am 20.3 ESE 11 14 1014.9 - 0.0 - - - - - - -
22/01:30am 21.3 ESE 13 16 1015.2 - 0.0 - - - - - - -
22/01:00am 22.6 SE 14 17 1015.6 - 0.0 - - - - - - -
22/12:30am 23.8 SE 13 17 1016.1 - 0.0 - - - - - - -
22/12:00am 24.3 S 15 19 1016.5 - 0.0 - - - - - - -
 
Date/Time
CDT
Temp

°C
Wind Pressure Rain
since 9am
mm
Weather Cloud Vis
km
Sea
Height
m
Swell
Dir
 
Speed
knots
Gust
knots
hPa Trend Height
m
Period
s
Dir
21/11:37pm 23.8 SSW 15 25 1016.8 - 0.0 - - - - - - -
21/11:33pm 23.1 SSW 17 25 1016.5 - 0.0 - - - - - - -
21/11:30pm 22.9 E 10 11 1016.2 - 0.0 - - - - - - -
21/11:00pm 23.1 E 13 16 1015.8 - 0.0 - - - - - - -
21/10:30pm 23.6 E 13 16 1015.9 - 0.0 - - - - - - -
21/10:00pm 23.5 ESE 11 12 1015.9 - 0.0 - - - - - - -
21/09:30pm 23.8 ESE 8 9 1016.0 - 0.0 - - - - - - -
21/09:00pm 23.3 SE 11 11 1015.9 - 0.0 - - - - - - -
21/08:30pm 23.5 S 7 10 1016.1 - 0.0 - - - - - - -
21/08:00pm 25.3 ESE 7 7 1016.0 - 0.0 - - - - - - -
21/07:30pm 25.5 ESE 6 7 1016.0 - 0.0 - - - - - - -
21/07:00pm 27.1 WSW 1 4 1016.2 - 0.0 - - - - - - -
21/06:30pm 28.2 SSW 6 7 1015.8 - 0.0 - - - - - - -
21/06:00pm 29.1 WSW 6 11 1015.7 - 0.0 - - - - - - -
21/05:30pm 33.4 WSW 10 12 1015.4 - 0.0 - - - - - - -
21/05:00pm 33.4 WSW 8 12 1015.5 - 0.0 - - - - - - -
21/04:30pm 36.2 N 13 16 1015.4 - 0.0 - - - - - - -
21/04:00pm 35.9 NNW 13 17 1015.6 - 0.0 - - - - - - -
21/03:30pm 38.4 NNW 11 16 1015.8 - 0.0 - - - - - - -
21/03:00pm 37.5 N 14 18 1016.1 - 0.0 - - - - - - -
21/02:30pm 38.0 N 14 19 1016.5 - 0.0 - - - - - - -
21/02:00pm 36.8 N 15 19 1017.0 - 0.0 - - - - - - -
21/01:30pm 36.7 N 16 21 1017.4 - 0.0 - - - - - - -
21/01:00pm 35.0 NNW 13 17 1017.8 - 0.0 - - - - - - -
21/12:30pm 34.9 N 14 19 1017.9 - 0.0 - - - - - - -
21/12:00pm 33.9 N 10 15 1018.3 - 0.0 - - - - - - -
21/11:30am 32.7 NNW 8 11 1018.4 - 0.0 - - - - - - -
21/11:00am 31.5 NW 9 11 1018.4 - 0.0 - - - - - - -
21/10:30am 34.7 N 17 24 1018.3 - 0.0 - - - - - - -
21/10:00am 32.6 NNE 17 23 1018.5 - 0.0 - - - - - - -
21/09:30am 30.1 NNE 17 22 1018.6 - 0.0 - - - - - - -
21/09:00am 29.2 NE 20 27 1018.4 - 0.0 - - - - - - -
21/08:30am 26.7 NE 19 25 1018.2 - 0.0 - - - - - - -
21/08:00am 25.6 NE 19 25 1018.1 - 0.0 - - - - - - -
21/07:30am 23.0 ENE 16 20 1017.9 - 0.0 - - - - - - -
21/07:00am 22.0 ENE 16 21 1017.5 - 0.0 - - - - - - -
21/06:30am 21.7 ENE 17 20 1017.2 - 0.0 - - - - - - -
21/06:00am 22.0 ENE 17 21 1017.0 - 0.0 - - - - - - -
21/05:30am 22.2 ENE 18 23 1016.8 - 0.0 - - - - - - -
21/05:00am 21.6 ENE 18 23 1016.8 - 0.0 - - - - - - -
21/04:30am 21.0 E 18 21 1016.8 - 0.0 - - - - - - -
21/04:00am 21.3 ENE 17 21 1017.0 - 0.0 - - - - - - -
21/03:30am 22.0 ENE 18 23 1017.1 - 0.0 - - - - - - -
21/03:00am 22.6 ENE 19 23 1017.4 - 0.0 - - - - - - -
21/02:30am 22.6 ENE 18 23 1017.7 - 0.0 - - - - - - -
21/02:00am 22.6 ENE 17 22 1018.1 - 0.0 - - - - - - -
21/01:30am 22.3 ENE 16 21 1018.6 - 0.0 - - - - - - -
21/01:00am 21.9 ENE 17 21 1018.9 - 0.0 - - - - - - -
21/12:30am 22.4 ENE 18 22 1019.1 - 0.0 - - - - - - -
21/12:00am 21.4 E 16 20 1019.3 - 0.0 - - - - - - -
 
Date/Time
CDT
Temp

°C
Wind Pressure Rain
since 9am
mm
Weather Cloud Vis
km
Sea
Height
m
Swell
Dir
 
Speed
knots
Gust
knots
hPa Trend Height
m
Period
s
Dir
20/11:30pm 21.0 E 17 19 1019.4 - 0.0 - - - - - - -
20/11:00pm 21.3 E 16 19 1019.6 - 0.0 - - - - - - -
20/10:30pm 22.5 E 15 19 1019.8 - 0.0 - - - - - - -
20/10:00pm 21.6 E 14 19 1019.9 - 0.0 - - - - - - -
20/09:30pm 20.8 E 14 17 1020.1 - 0.0 - - - - - - -
20/09:00pm 19.9 E 16 18 1019.8 - 0.0 - - - - - - -

Other Formats:

Comma delimited format used in spreadsheet applications
http://www.bom.gov.au/fwo/IDS60701/IDS60701.95659.axf

JavaScript Object Notation format (JSON) in row-major order
http://www.bom.gov.au/fwo/IDS60701/IDS60701.95659.json